Time;durP1;ratioP1;P1;durP2;ratioP2;P2;SDS_P1;SDS_P2;PMS_P1;PMS_P2;Temp;Humidity;BMP_temperature;BMP_pressure;BME280_temperature;BME280_humidity;BME280_pressure;Samples;Min_cycle;Max_cycle;Signal;HPM_P1;HPM_P2
2024/02/10 00:00:31;;;;;;;13.20;9.50;;;;;;;7.42;80.98;97107.66;105888;1252;96595;-75
2024/02/10 00:03:20;;;;;;;18.00;11.40;;;;;;;7.43;81.01;97103.52;105575;1255;109990;-72
2024/02/10 00:05:48;;;;;;;16.00;10.20;;;;;;;7.48;81.20;97102.55;106132;1255;96578;-72
2024/02/10 00:08:16;;;;;;;15.50;10.40;;;;;;;7.52;81.22;97104.07;105801;1264;107086;-72
2024/02/10 00:10:44;;;;;;;18.50;10.10;;;;;;;7.53;81.13;97103.65;105908;1256;97832;-71
2024/02/10 00:13:12;;;;;;;15.00;10.00;;;;;;;7.53;81.01;97106.60;106096;1256;96566;-73
2024/02/10 00:15:40;;;;;;;18.70;10.30;;;;;;;7.54;80.99;97108.83;108338;1253;110026;-72
2024/02/10 00:18:10;;;;;;;18.60;10.00;;;;;;;7.54;80.89;97108.16;105750;1256;96550;-79
2024/02/10 00:20:39;;;;;;;14.90;9.40;;;;;;;7.53;80.82;97109.81;107085;1253;107306;-71
2024/02/10 00:23:07;;;;;;;13.60;10.40;;;;;;;7.53;80.88;97112.30;105599;1256;96674;-74
2024/02/10 00:25:36;;;;;;;15.70;10.00;;;;;;;7.53;80.92;97118.34;105539;1250;97529;-72
2024/02/10 00:28:06;;;;;;;16.60;10.90;;;;;;;7.52;80.95;97119.27;105592;1256;109537;-73
2024/02/10 00:30:34;;;;;;;16.50;10.50;;;;;;;7.47;80.85;97119.55;105362;1258;96653;-75
2024/02/10 00:33:04;;;;;;;17.40;11.30;;;;;;;7.43;80.97;97125.30;105666;1256;107777;-79
2024/02/10 00:35:32;;;;;;;13.70;9.90;;;;;;;7.39;80.78;97129.77;105882;1256;96512;-72
2024/02/10 00:38:00;;;;;;;15.50;9.50;;;;;;;7.35;80.78;97126.63;106663;1254;97904;-72
2024/02/10 00:40:29;;;;;;;14.60;9.60;;;;;;;7.31;80.68;97129.25;108528;1251;110046;-72
2024/02/10 00:42:57;;;;;;;14.60;9.20;;;;;;;7.30;80.92;97134.81;107679;1254;96495;-72
2024/02/10 00:45:26;;;;;;;16.20;9.80;;;;;;;7.33;81.02;97133.48;106352;1256;107488;-72
2024/02/10 00:47:55;;;;;;;15.10;8.20;;;;;;;7.39;81.05;97136.14;106248;1255;96602;-72
2024/02/10 00:50:23;;;;;;;15.50;9.90;;;;;;;7.46;81.29;97138.30;106808;1254;96577;-74
2024/02/10 00:52:51;;;;;;;13.70;8.60;;;;;;;7.54;81.39;97143.09;105556;1253;109444;-73
2024/02/10 00:55:25;;;;;;;12.80;9.40;;;;;;;7.59;81.19;97144.19;106321;1253;96629;-73
2024/02/10 00:57:53;;;;;;;19.60;10.40;;;;;;;7.65;81.30;97139.63;106511;1256;107293;-72
2024/02/10 01:00:21;;;;;;;15.90;9.60;;;;;;;7.74;81.30;97138.41;105310;1258;96574;-74
2024/02/10 01:02:50;;;;;;;13.70;9.10;;;;;;;7.82;81.35;97135.75;105358;1256;97486;-73
2024/02/10 01:05:17;;;;;;;17.40;10.00;;;;;;;7.89;81.39;97133.52;105504;1256;110003;-71
2024/02/10 01:07:47;;;;;;;16.40;9.50;;;;;;;7.96;81.39;97135.39;106050;1255;96698;-72
2024/02/10 01:10:16;;;;;;;16.80;10.60;;;;;;;8.03;81.55;97127.66;106748;1256;107965;-75
2024/02/10 01:12:44;;;;;;;15.70;9.70;;;;;;;8.08;81.44;97125.77;105658;1254;97502;-72
2024/02/10 01:15:12;;;;;;;17.20;11.60;;;;;;;8.12;81.30;97129.17;106017;1253;96586;-71
2024/02/10 01:17:41;;;;;;;15.60;9.20;;;;;;;8.16;81.38;97126.83;105811;1254;108915;-75
2024/02/10 01:20:12;;;;;;;17.30;9.90;;;;;;;8.18;81.28;97127.13;106488;1253;96998;-73
2024/02/10 01:22:41;;;;;;;13.90;9.10;;;;;;;8.19;81.06;97128.30;108739;1252;107593;-72
2024/02/10 01:25:09;;;;;;;16.40;9.80;;;;;;;8.20;81.18;97128.23;108758;1251;94549;-76
2024/02/10 01:27:37;;;;;;;13.40;8.80;;;;;;;8.22;81.35;97128.40;108800;1253;94809;-72
2024/02/10 01:30:07;;;;;;;15.20;9.30;;;;;;;8.24;81.28;97125.90;108774;1253;108417;-76
2024/02/10 01:32:36;;;;;;;15.80;9.30;;;;;;;8.28;81.27;97122.56;107571;1250;96533;-74
2024/02/10 01:35:04;;;;;;;16.30;9.80;;;;;;;8.31;81.26;97121.55;106794;1251;107666;-73
2024/02/10 01:37:32;;;;;;;16.80;10.50;;;;;;;8.32;81.27;97122.50;105750;1255;96661;-71
2024/02/10 01:40:01;;;;;;;17.00;9.80;;;;;;;8.31;81.08;97125.88;106158;1253;97172;-72
2024/02/10 01:42:38;;;;;;;11.70;8.30;;;;;;;8.33;81.27;97131.55;105569;1250;109941;-71
2024/02/10 01:45:13;;;;;;;17.20;10.00;;;;;;;8.34;81.39;97133.26;105692;1256;96568;-73
2024/02/10 01:47:43;;;;;;;15.50;9.30;;;;;;;8.33;81.30;97136.13;105640;1255;107403;-73
2024/02/10 01:50:12;;;;;;;16.20;9.40;;;;;;;8.31;81.20;97139.84;105728;1253;96678;-77
2024/02/10 01:52:41;;;;;;;15.40;9.60;;;;;;;8.32;81.49;97140.87;106852;1250;94909;-72
2024/02/10 01:55:10;;;;;;;13.30;9.00;;;;;;;8.31;81.43;97142.86;105778;1256;109910;-76
2024/02/10 01:57:39;;;;;;;14.40;9.40;;;;;;;8.30;81.36;97141.91;107133;1254;96578;-73
2024/02/10 02:00:13;;;;;;;13.30;8.90;;;;;;;8.29;81.33;97141.16;105732;1256;107677;-72
2024/02/10 02:02:43;;;;;;;12.70;8.40;;;;;;;8.28;81.40;97143.67;106885;1255;96600;-73
2024/02/10 02:05:12;;;;;;;14.80;9.10;;;;;;;8.30;81.47;97142.94;105797;1256;96669;-71
2024/02/10 02:07:41;;;;;;;13.50;8.30;;;;;;;8.30;81.37;97140.38;105838;1253;108350;-73
2024/02/10 02:10:09;;;;;;;14.60;10.20;;;;;;;8.29;81.42;97142.16;106758;1254;96735;-73
2024/02/10 02:12:51;;;;;;;15.40;9.70;;;;;;;8.30;81.50;97143.13;107527;1255;107745;-71
2024/02/10 02:15:20;;;;;;;15.00;9.70;;;;;;;8.30;81.28;97145.84;105310;1257;96592;-72
2024/02/10 02:17:47;;;;;;;14.60;8.70;;;;;;;8.30;81.52;97147.57;106140;1255;96521;-73
2024/02/10 02:20:16;;;;;;;15.10;10.50;;;;;;;8.30;81.37;97146.67;105775;1255;109531;-75
2024/02/10 02:22:50;;;;;;;17.10;10.10;;;;;;;8.28;81.44;97150.00;105412;1256;96584;-73
2024/02/10 02:25:20;;;;;;;43.40;17.30;;;;;;;8.31;81.44;97150.69;105601;1256;107666;-74
2024/02/10 02:27:48;;;;;;;35.30;17.10;;;;;;;8.30;81.43;97152.48;106856;1253;97967;-77
2024/02/10 02:30:16;;;;;;;26.40;13.70;;;;;;;8.27;81.35;97153.88;105634;1256;96584;-72
2024/02/10 02:32:44;;;;;;;26.10;13.70;;;;;;;8.23;81.49;97155.80;105247;1256;109573;-72
2024/02/10 02:35:12;;;;;;;26.10;13.40;;;;;;;8.18;81.30;97159.12;106198;1256;97911;-76
2024/02/10 02:37:41;;;;;;;19.60;10.90;;;;;;;8.13;81.41;97162.55;105503;1256;105731;-73
2024/02/10 02:40:12;;;;;;;24.20;13.00;;;;;;;8.10;81.37;97161.42;105994;1256;96650;-72
2024/02/10 02:42:40;;;;;;;17.50;10.10;;;;;;;8.07;81.35;97161.91;105294;1253;96594;-72
2024/02/10 02:45:10;;;;;;;18.70;11.50;;;;;;;8.03;81.51;97164.73;105558;1255;109613;-73
2024/02/10 02:47:39;;;;;;;19.60;10.60;;;;;;;7.99;81.48;97167.73;107021;1251;96519;-71
2024/02/10 02:50:14;;;;;;;16.90;11.00;;;;;;;7.97;81.48;97165.12;105307;1256;107515;-73
2024/02/10 02:52:43;;;;;;;14.20;9.70;;;;;;;7.96;81.52;97164.15;105441;1255;96662;-74
2024/02/10 02:55:12;;;;;;;14.20;9.70;;;;;;;7.95;81.60;97171.26;105777;1254;96568;-73
2024/02/10 02:57:40;;;;;;;15.90;8.90;;;;;;;7.93;81.57;97170.91;106061;1256;109934;-74
2024/02/10 03:00:08;;;;;;;13.50;8.70;;;;;;;7.91;81.39;97170.24;107637;1253;96563;-72
2024/02/10 03:02:41;;;;;;;11.80;8.70;;;;;;;7.87;81.45;97166.18;105715;1251;105979;-74
2024/02/10 03:05:10;;;;;;;13.80;8.70;;;;;;;7.86;81.49;97168.08;105393;1255;96631;-71
2024/02/10 03:07:45;;;;;;;12.80;8.00;;;;;;;7.85;81.71;97167.95;106912;1255;98043;-75
2024/02/10 03:10:15;;;;;;;13.00;8.60;;;;;;;7.84;81.47;97169.10;106849;1254;109888;-72
2024/02/10 03:12:45;;;;;;;13.80;8.60;;;;;;;7.83;81.65;97168.68;105684;1256;97535;-72
2024/02/10 03:15:14;;;;;;;10.70;8.50;;;;;;;7.81;81.73;97168.27;105798;1256;107374;-76
2024/02/10 03:17:46;;;;;;;13.00;8.30;;;;;;;7.82;81.65;97165.77;105853;1255;96612;-73
2024/02/10 03:20:21;;;;;;;12.10;8.30;;;;;;;7.83;81.65;97165.48;105659;1253;97925;-72
2024/02/10 03:23:02;;;;;;;12.30;8.80;;;;;;;7.87;81.75;97168.52;106725;1255;110298;-73
2024/02/10 03:25:31;;;;;;;13.30;8.00;;;;;;;7.85;81.78;97169.55;105527;1255;96600;-73
2024/02/10 03:28:03;;;;;;;14.40;8.90;;;;;;;7.84;81.73;97168.07;106225;1254;107244;-76
2024/02/10 03:30:31;;;;;;;13.80;8.70;;;;;;;7.84;81.80;97167.67;107324;1255;97021;-77
2024/02/10 03:33:01;;;;;;;14.50;8.40;;;;;;;7.85;81.87;97167.63;106960;1254;96591;-74
2024/02/10 03:35:32;;;;;;;13.20;9.00;;;;;;;7.84;81.74;97165.73;105715;1251;109961;-71
2024/02/10 03:38:01;;;;;;;13.20;8.50;;;;;;;7.84;81.68;97168.23;105474;1256;96815;-71
2024/02/10 03:40:29;;;;;;;12.60;8.80;;;;;;;7.85;81.95;97170.45;108452;1251;107644;-71
2024/02/10 03:42:57;;;;;;;13.60;8.80;;;;;;;7.84;81.99;97168.17;105902;1255;96686;-71
2024/02/10 03:45:30;;;;;;;12.80;9.00;;;;;;;7.86;81.75;97168.77;105321;1256;96593;-72
2024/02/10 03:48:03;;;;;;;12.00;8.10;;;;;;;7.84;81.73;97172.27;105474;1256;109635;-73
2024/02/10 03:50:32;;;;;;;13.90;9.70;;;;;;;7.82;81.78;97166.27;105457;1260;97495;-75
2024/02/10 03:53:00;;;;;;;12.60;8.40;;;;;;;7.82;81.79;97168.91;105401;1251;107120;-72
2024/02/10 03:55:29;;;;;;;11.30;7.90;;;;;;;7.82;81.71;97170.02;107856;1254;96658;-74
2024/02/10 03:57:58;;;;;;;11.40;7.80;;;;;;;7.78;81.58;97168.94;105834;1256;97925;-76
2024/02/10 04:00:28;;;;;;;12.70;8.60;;;;;;;7.77;81.76;97165.34;105699;1260;107979;-73
2024/02/10 04:02:56;;;;;;;12.00;8.20;;;;;;;7.78;81.79;97167.21;106493;1254;97518;-73
2024/02/10 04:05:34;;;;;;;12.40;8.60;;;;;;;7.77;81.73;97165.53;105787;1256;105644;-73
2024/02/10 04:08:03;;;;;;;12.80;8.70;;;;;;;7.75;81.75;97164.10;105832;1255;96694;-72
2024/02/10 04:10:31;;;;;;;12.70;8.10;;;;;;;7.72;81.82;97165.02;105802;1254;97932;-74
2024/02/10 04:12:59;;;;;;;12.20;7.70;;;;;;;7.72;81.70;97163.11;105727;1256;109829;-73
2024/02/10 04:15:27;;;;;;;12.10;8.00;;;;;;;7.71;81.92;97164.23;105242;1255;96506;-72
2024/02/10 04:17:55;;;;;;;12.10;8.90;;;;;;;7.71;81.96;97159.17;105958;1256;106771;-74
2024/02/10 04:20:25;;;;;;;12.50;9.10;;;;;;;7.70;82.01;97154.80;107514;1254;96594;-72
2024/02/10 04:22:55;;;;;;;11.50;7.60;;;;;;;7.71;81.86;97149.15;105832;1256;96630;-72
2024/02/10 04:25:24;;;;;;;10.90;7.50;;;;;;;7.70;81.95;97144.02;105395;1257;109880;-72
2024/02/10 04:27:52;;;;;;;11.50;7.80;;;;;;;7.70;81.91;97148.33;107727;1255;96508;-71
2024/02/10 04:30:20;;;;;;;11.30;8.20;;;;;;;7.69;82.06;97145.55;105441;1264;107430;-71
2024/02/10 04:32:47;;;;;;;13.20;8.40;;;;;;;7.69;81.79;97142.27;107841;1255;96634;-71
2024/02/10 04:35:16;;;;;;;11.40;7.90;;;;;;;7.69;82.14;97143.45;105904;1256;96588;-72
2024/02/10 04:37:51;;;;;;;13.10;8.70;;;;;;;7.70;82.03;97144.04;105281;1256;108874;-72
2024/02/10 04:40:23;;;;;;;12.30;8.80;;;;;;;7.71;81.85;97141.41;105516;1256;96673;-78
2024/02/10 04:42:53;;;;;;;12.30;8.60;;;;;;;7.71;81.96;97140.98;107036;1253;107267;-79
2024/02/10 04:45:30;;;;;;;12.40;7.70;;;;;;;7.71;82.05;97130.77;108481;1254;95939;-71
2024/02/10 04:48:00;;;;;;;10.50;7.50;;;;;;;7.71;81.84;97131.98;105796;1257;97069;-74
2024/02/10 04:50:29;;;;;;;12.80;8.90;;;;;;;7.70;82.08;97134.52;105662;1267;110876;-72
2024/02/10 04:52:58;;;;;;;11.30;7.70;;;;;;;7.71;81.94;97133.05;106073;1256;96587;-71
2024/02/10 04:55:27;;;;;;;14.20;7.80;;;;;;;7.71;82.03;97136.36;108539;1256;107415;-71
2024/02/10 04:57:55;;;;;;;10.60;7.50;;;;;;;7.71;82.13;97131.06;106242;1252;97543;-71
2024/02/10 05:00:23;;;;;;;11.20;7.60;;;;;;;7.73;82.02;97126.63;106930;1253;96608;-76
2024/02/10 05:02:51;;;;;;;10.70;7.30;;;;;;;7.74;81.97;97132.42;106156;1256;109703;-72
2024/02/10 05:05:20;;;;;;;10.30;7.40;;;;;;;7.74;82.01;97131.40;107184;1255;96510;-72
2024/02/10 05:07:54;;;;;;;9.20;6.50;;;;;;;7.74;82.16;97128.89;105783;1257;107694;-74
2024/02/10 05:10:23;;;;;;;8.40;6.70;;;;;;;7.76;82.01;97135.59;105434;1266;97950;-73
2024/02/10 05:12:55;;;;;;;10.00;7.10;;;;;;;7.76;81.88;97134.56;105877;1267;96530;-73
2024/02/10 05:15:25;;;;;;;9.40;6.80;;;;;;;7.73;81.99;97135.30;107204;1253;110747;-75
2024/02/10 05:17:54;;;;;;;9.40;6.70;;;;;;;7.74;82.09;97134.05;106502;1255;96527;-71
2024/02/10 05:20:23;;;;;;;10.10;6.90;;;;;;;7.74;82.20;97136.80;106847;1252;107341;-73
2024/02/10 05:22:53;;;;;;;10.40;6.90;;;;;;;7.75;81.95;97138.33;105573;1261;96632;-72
2024/02/10 05:25:23;;;;;;;12.10;7.30;;;;;;;7.75;82.09;97140.04;106949;1254;96532;-71
2024/02/10 05:27:51;;;;;;;11.00;7.50;;;;;;;7.75;82.13;97139.52;105881;1266;109916;-72
2024/02/10 05:30:24;;;;;;;9.50;7.20;;;;;;;7.77;82.04;97141.56;106281;1253;96730;-75
2024/02/10 05:32:56;;;;;;;10.50;7.60;;;;;;;7.76;82.09;97141.08;106031;1256;106836;-72
2024/02/10 05:35:26;;;;;;;9.40;6.50;;;;;;;7.76;82.08;97140.18;108583;1251;94816;-73
2024/02/10 05:37:58;;;;;;;10.80;7.30;;;;;;;7.77;82.07;97140.08;105879;1256;96599;-73
2024/02/10 05:40:27;;;;;;;10.80;7.00;;;;;;;7.79;82.15;97138.29;105549;1266;109240;-73
2024/02/10 05:42:58;;;;;;;10.40;6.40;;;;;;;7.81;82.13;97139.06;106233;1255;96590;-72
2024/02/10 05:45:28;;;;;;;11.80;6.40;;;;;;;7.80;82.10;97139.07;106243;1255;109280;-72
2024/02/10 05:47:58;;;;;;;10.00;7.20;;;;;;;7.81;82.19;97145.23;105590;1264;96621;-74
2024/02/10 05:50:27;;;;;;;10.80;6.60;;;;;;;7.82;82.11;97150.21;107292;1254;98037;-71
2024/02/10 05:52:57;;;;;;;9.80;7.20;;;;;;;7.82;82.11;97150.23;105650;1255;109428;-73
2024/02/10 05:55:28;;;;;;;6.80;5.90;;;;;;;7.81;82.15;97153.52;105591;1256;97422;-73
2024/02/10 05:58:06;;;;;;;9.00;6.80;;;;;;;7.80;82.21;97155.15;107618;1251;105640;-73
2024/02/10 06:00:40;;;;;;;;;;;;;;;7.82;82.13;97155.89;106415;1254;97510;-73
2024/02/10 06:03:08;;;;;;;9.40;6.20;;;;;;;7.82;82.44;97156.03;106357;1253;97532;-72
2024/02/10 06:05:39;;;;;;;11.90;7.00;;;;;;;7.81;82.21;97157.30;105641;1257;110300;-72
2024/02/10 06:08:11;;;;;;;9.10;6.60;;;;;;;7.82;82.12;97158.38;107822;1255;96463;-71
2024/02/10 06:10:40;;;;;;;9.00;6.40;;;;;;;7.82;82.06;97164.53;105451;1265;107252;-73
2024/02/10 06:13:09;;;;;;;9.20;6.50;;;;;;;7.82;82.05;97167.71;107171;1255;96520;-73
2024/02/10 06:15:37;;;;;;;10.50;6.10;;;;;;;7.81;82.17;97170.05;105702;1254;96578;-72
2024/02/10 06:18:05;;;;;;;8.40;6.20;;;;;;;7.83;82.14;97171.33;106625;1251;109605;-73
2024/02/10 06:20:33;;;;;;;8.60;5.70;;;;;;;7.83;82.13;97172.39;105303;1251;96678;-73
2024/02/10 06:23:03;;;;;;;10.90;6.70;;;;;;;7.82;82.19;97169.85;105692;1251;108131;-73
2024/02/10 06:25:31;;;;;;;11.20;7.00;;;;;;;7.82;81.99;97167.89;105794;1255;96581;-75
2024/02/10 06:28:00;;;;;;;8.60;6.40;;;;;;;7.80;82.16;97171.71;106175;1251;97973;-73
2024/02/10 06:30:34;;;;;;;8.40;6.20;;;;;;;7.80;82.26;97171.78;107813;1254;109771;-73
2024/02/10 06:33:07;;;;;;;8.40;6.50;;;;;;;7.82;82.16;97165.26;106294;1255;97901;-71
2024/02/10 06:35:36;;;;;;;9.40;6.40;;;;;;;7.82;82.33;97164.64;106042;1256;107587;-72
2024/02/10 06:38:04;;;;;;;9.90;6.40;;;;;;;7.83;82.21;97162.53;105631;1256;97912;-75
2024/02/10 06:40:37;;;;;;;10.70;5.50;;;;;;;7.84;82.19;97165.23;105648;1256;96506;-72
2024/02/10 06:43:08;;;;;;;8.00;5.80;;;;;;;7.87;82.50;97167.96;106459;1253;110318;-73
2024/02/10 06:45:36;;;;;;;9.60;6.00;;;;;;;7.88;82.28;97166.56;105939;1251;96591;-72
2024/02/10 06:48:05;;;;;;;10.50;6.60;;;;;;;7.89;82.27;97164.77;107017;1253;105530;-72
2024/02/10 06:50:35;;;;;;;7.60;5.80;;;;;;;7.89;82.41;97166.67;105756;1251;96671;-72
2024/02/10 06:53:04;;;;;;;9.60;5.80;;;;;;;7.90;82.33;97169.96;107536;1249;96575;-72
2024/02/10 06:55:33;;;;;;;8.00;5.60;;;;;;;7.93;82.42;97169.94;105475;1251;109829;-74
2024/02/10 06:58:02;;;;;;;8.10;5.50;;;;;;;7.94;82.33;97169.23;106353;1255;97281;-73
2024/02/10 07:00:40;;;;;;;8.10;5.30;;;;;;;7.95;82.37;97167.98;106054;1251;107502;-76
2024/02/10 07:03:09;;;;;;;9.10;5.90;;;;;;;7.96;82.32;97174.20;106272;1257;96709;-72
2024/02/10 07:05:37;;;;;;;10.40;6.60;;;;;;;7.98;82.52;97176.77;107166;1251;96623;-72
2024/02/10 07:08:05;;;;;;;8.10;5.90;;;;;;;8.02;82.53;97175.56;105681;1257;109685;-70
2024/02/10 07:10:33;;;;;;;8.10;5.40;;;;;;;8.03;82.45;97175.61;105519;1258;96623;-70
2024/02/10 07:13:04;;;;;;;8.80;5.80;;;;;;;8.05;82.38;97174.92;105888;1251;107648;-71
2024/02/10 07:15:32;;;;;;;7.80;5.50;;;;;;;8.10;82.51;97174.35;106195;1254;96709;-72
2024/02/10 07:18:06;;;;;;;7.70;5.60;;;;;;;8.12;82.55;97175.16;107994;1251;94606;-70
2024/02/10 07:20:35;;;;;;;7.40;5.40;;;;;;;8.15;82.54;97176.52;107009;1257;109615;-73
2024/02/10 07:23:04;;;;;;;8.20;5.90;;;;;;;8.15;82.39;97177.55;105936;1251;96587;-71
2024/02/10 07:25:38;;;;;;;11.10;6.60;;;;;;;8.17;82.62;97179.46;106655;1254;108704;-72
2024/02/10 07:28:08;;;;;;;8.90;6.00;;;;;;;8.20;82.62;97177.11;105645;1251;97098;-71
2024/02/10 07:30:37;;;;;;;8.70;5.80;;;;;;;8.20;82.48;97182.89;108163;1251;94539;-71
2024/02/10 07:33:08;;;;;;;9.60;6.10;;;;;;;8.22;82.60;97184.00;105992;1257;109412;-70
2024/02/10 07:35:43;;;;;;;8.60;6.50;;;;;;;8.24;82.70;97184.02;106028;1256;96599;-71
2024/02/10 07:38:11;;;;;;;9.80;6.90;;;;;;;8.26;82.58;97186.77;106568;1251;107314;-72
2024/02/10 07:40:39;;;;;;;8.30;5.90;;;;;;;8.28;82.58;97181.48;105550;1257;96588;-74
2024/02/10 07:43:12;;;;;;;9.00;5.80;;;;;;;8.31;82.67;97176.77;105642;1251;96525;-72
2024/02/10 07:45:40;;;;;;;7.60;5.60;;;;;;;8.34;82.75;97175.23;105958;1257;110053;-70
2024/02/10 07:48:08;;;;;;;8.30;6.40;;;;;;;8.37;82.77;97173.42;105889;1255;96604;-72
2024/02/10 07:50:40;;;;;;;6.70;5.10;;;;;;;8.40;82.68;97176.14;105865;1256;107647;-71
2024/02/10 07:53:12;;;;;;;8.90;5.80;;;;;;;8.43;82.88;97170.86;105568;1265;96683;-75
2024/02/10 07:55:44;;;;;;;8.30;5.60;;;;;;;8.48;82.99;97167.77;105779;1251;96579;-72
2024/02/10 07:58:14;;;;;;;7.90;5.70;;;;;;;8.56;82.96;97165.66;106189;1251;109911;-75
2024/02/10 08:00:44;;;;;;;6.80;4.60;;;;;;;8.62;82.98;97169.35;107386;1251;96612;-72
2024/02/10 08:03:12;;;;;;;7.30;5.20;;;;;;;8.69;83.05;97166.25;107242;1254;107639;-73
2024/02/10 08:05:42;;;;;;;7.00;4.90;;;;;;;8.75;83.01;97167.03;105584;1254;96585;-76
2024/02/10 08:08:10;;;;;;;8.10;5.90;;;;;;;8.82;83.02;97165.67;105578;1257;97516;-75
2024/02/10 08:10:40;;;;;;;7.60;4.30;;;;;;;8.90;83.02;97163.71;105377;1263;108031;-74
2024/02/10 08:13:08;;;;;;;8.40;5.50;;;;;;;8.95;83.13;97166.00;105630;1257;96600;-73
2024/02/10 08:30:41;;;;;;;;;;;;;;;;;;;;;
2024/02/10 08:42:10;;;;;;;;;;;;;;;;;;;;;
2024/02/10 08:45:34;;;;;;;;;;;;;;;;;;;;;
2024/02/10 08:49:38;;;;;;;;;;;;;;;;;;;;;
2024/02/10 08:57:23;;;;;;;7.10;4.80;;;;;;;9.48;83.08;97167.85;103418;1288;107808;-81
2024/02/10 09:04:25;;;;;;;8.10;5.20;;;;;;;9.59;83.07;97169.23;105634;1284;95045;-77
2024/02/10 09:08:13;;;;;;;;;;;;;;;;;;;;;
2024/02/10 09:10:56;;;;;;;6.20;4.50;;;;;;;9.69;83.11;97159.00;105148;1279;97909;-74
2024/02/10 09:13:38;;;;;;;;;;;;;;;;;;;;;
2024/02/10 09:16:30;;;;;;;8.30;5.60;;;;;;;9.91;83.32;97148.34;105726;1273;96465;-74
2024/02/10 09:19:49;;;;;;;9.50;6.30;;;;;;;10.04;83.46;97147.89;103900;1276;96670;-76
2024/02/10 09:27:36;;;;;;;6.50;4.90;;;;;;;10.42;83.45;97149.78;103615;1287;98389;-75
2024/02/10 09:30:25;;;;;;;8.70;5.50;;;;;;;10.53;83.39;97147.95;106050;1269;107424;-75
2024/02/10 09:32:53;;;;;;;8.40;5.40;;;;;;;10.57;83.39;97141.66;104569;1273;96966;-74
2024/02/10 09:35:23;;;;;;;7.10;5.30;;;;;;;10.62;83.41;97137.48;104644;1267;96610;-74
2024/02/10 09:38:03;;;;;;;9.50;5.20;;;;;;;10.64;83.37;97140.59;105568;1260;110028;-74
2024/02/10 09:40:36;;;;;;;9.00;5.60;;;;;;;10.67;83.31;97143.66;106058;1257;96660;-75
2024/02/10 09:43:08;;;;;;;7.90;5.60;;;;;;;10.72;83.36;97144.41;105483;1260;107571;-75
2024/02/10 09:45:45;;;;;;;7.30;5.40;;;;;;;10.77;83.36;97148.35;106174;1257;97941;-74
2024/02/10 09:48:19;;;;;;;9.60;5.60;;;;;;;10.80;83.30;97152.29;107994;1257;94718;-75
2024/02/10 09:50:48;;;;;;;8.60;6.00;;;;;;;10.81;83.19;97151.30;104878;1273;110162;-73
2024/02/10 09:53:16;;;;;;;12.60;6.30;;;;;;;10.82;83.19;97150.45;105548;1260;96783;-71
2024/02/10 09:56:10;;;;;;;10.40;6.60;;;;;;;10.86;83.26;97147.19;104857;1257;107193;-73
2024/02/10 09:58:47;;;;;;;9.50;5.90;;;;;;;10.88;83.13;97139.42;106228;1260;97435;-73
2024/02/10 10:01:16;;;;;;;8.90;6.20;;;;;;;10.89;83.18;97132.54;105462;1264;96584;-71
2024/02/10 10:03:44;;;;;;;11.60;6.60;;;;;;;10.92;83.18;97130.32;108377;1252;110053;-71
2024/02/10 10:06:14;;;;;;;9.50;5.60;;;;;;;10.96;83.25;97136.25;107823;1253;96525;-72
2024/02/10 10:08:42;;;;;;;10.30;6.60;;;;;;;10.98;83.06;97141.35;105639;1252;107095;-74
2024/02/10 10:11:12;;;;;;;9.50;6.90;;;;;;;11.00;83.08;97145.93;105430;1256;96592;-75
2024/02/10 10:13:40;;;;;;;11.00;8.40;;;;;;;11.05;83.11;97144.59;105462;1251;97535;-71
2024/02/10 10:16:11;;;;;;;14.00;8.10;;;;;;;11.07;83.12;97147.16;106834;1252;109960;-74
2024/02/10 10:18:39;;;;;;;13.20;8.50;;;;;;;11.09;83.16;97146.40;105369;1253;97481;-71
2024/02/10 10:21:10;;;;;;;11.60;7.70;;;;;;;11.11;83.08;97145.30;105413;1267;108647;-71
2024/02/10 10:23:39;;;;;;;11.30;7.30;;;;;;;11.11;83.11;97139.83;107059;1253;97971;-73
2024/02/10 10:26:12;;;;;;;10.80;7.00;;;;;;;11.10;83.00;97136.88;105657;1251;96579;-83
2024/02/10 10:28:49;;;;;;;12.50;7.60;;;;;;;11.11;82.87;97138.42;106042;1255;109561;-82
2024/02/10 10:31:18;;;;;;;11.90;7.40;;;;;;;11.11;82.87;97138.75;105609;1254;97309;-80
2024/02/10 10:33:50;;;;;;;12.10;7.60;;;;;;;11.15;82.97;97136.23;105755;1256;107670;-77
2024/02/10 10:36:20;;;;;;;11.70;8.30;;;;;;;11.17;82.83;97129.39;106427;1253;96603;-78
2024/02/10 10:38:52;;;;;;;12.90;8.20;;;;;;;11.20;82.91;97127.70;107241;1253;96626;-78
2024/02/10 10:41:22;;;;;;;17.70;9.90;;;;;;;11.22;82.83;97126.39;105830;1255;107968;-79
2024/02/10 10:43:55;;;;;;;12.00;8.40;;;;;;;11.28;82.80;97126.18;106450;1254;96642;-78
2024/02/10 10:46:24;;;;;;;12.00;7.60;;;;;;;11.30;82.83;97129.28;107991;1252;107698;-77
2024/02/10 10:48:54;;;;;;;9.00;7.10;;;;;;;11.31;82.59;97131.70;105606;1256;96783;-79
2024/02/10 10:51:37;;;;;;;13.50;7.70;;;;;;;11.31;82.50;97134.30;105528;1256;96563;-79
2024/02/10 10:54:06;;;;;;;11.00;7.70;;;;;;;11.31;82.49;97129.02;105942;1252;109970;-78
2024/02/10 10:56:38;;;;;;;12.40;7.70;;;;;;;11.34;82.42;97132.31;106023;1252;96582;-79
2024/02/10 10:59:09;;;;;;;14.10;8.20;;;;;;;11.32;82.31;97129.78;106375;1255;109157;-78
2024/02/10 11:03:44;;;;;;;11.80;8.00;;;;;;;11.35;82.04;97129.48;102671;1291;636196;-79
2024/02/10 11:06:19;;;;;;;11.20;7.50;;;;;;;11.31;81.97;97130.59;104586;1272;94345;-78
2024/02/10 11:08:54;;;;;;;11.30;7.30;;;;;;;11.33;81.97;97127.55;105706;1259;94272;-78
2024/02/10 11:11:22;;;;;;;11.30;7.40;;;;;;;11.39;82.02;97129.66;106173;1262;105783;-78
2024/02/10 11:14:06;;;;;;;11.40;7.70;;;;;;;11.40;81.76;97131.16;105362;1260;96699;-77
2024/02/10 11:16:54;;;;;;;10.50;7.80;;;;;;;11.40;81.69;97126.34;105912;1262;181099;-71
2024/02/10 11:19:22;;;;;;;9.90;7.40;;;;;;;11.42;81.60;97122.13;105381;1262;94323;-73
2024/02/10 11:21:53;;;;;;;12.90;7.20;;;;;;;11.45;81.60;97121.70;105367;1262;94290;-74
2024/02/10 11:24:30;;;;;;;8.90;7.10;;;;;;;11.46;81.41;97113.95;106323;1261;106691;-73
2024/02/10 11:26:58;;;;;;;12.20;7.80;;;;;;;11.49;81.31;97116.72;106066;1262;95379;-73
2024/02/10 11:29:28;;;;;;;10.00;6.90;;;;;;;11.46;81.19;97118.05;105063;1260;107644;-75
2024/02/10 11:31:57;;;;;;;13.60;7.90;;;;;;;11.43;80.95;97112.45;105088;1262;96231;-78
2024/02/10 11:34:25;;;;;;;10.90;6.10;;;;;;;11.44;80.89;97112.18;105128;1256;95316;-76
2024/02/10 11:36:54;;;;;;;12.30;8.00;;;;;;;11.45;80.87;97111.06;105541;1260;108809;-76
2024/02/10 11:39:24;;;;;;;10.70;6.60;;;;;;;11.47;80.78;97117.52;105805;1262;95447;-73
2024/02/10 11:42:00;;;;;;;8.80;6.50;;;;;;;11.52;80.81;97114.73;105563;1260;109293;-77
2024/02/10 11:44:28;;;;;;;12.30;7.90;;;;;;;11.52;80.66;97111.23;105652;1261;95167;-77
2024/02/10 11:47:18;;;;;;;12.70;6.90;;;;;;;11.54;80.77;97111.86;107821;1256;93837;-73
2024/02/10 11:49:46;;;;;;;10.60;8.40;;;;;;;11.56;80.53;97118.22;108087;1256;108179;-74
2024/02/10 11:52:20;;;;;;;9.00;6.40;;;;;;;11.54;80.22;97118.09;104862;1263;95481;-75
2024/02/10 11:54:48;;;;;;;13.60;7.30;;;;;;;11.53;80.11;97118.95;104931;1266;108145;-77
2024/02/10 11:57:16;;;;;;;12.20;7.90;;;;;;;11.55;80.21;97116.70;105206;1263;95073;-77
2024/02/10 11:59:44;;;;;;;10.30;6.90;;;;;;;11.58;80.29;97118.39;105911;1263;95251;-77
2024/02/10 12:02:14;;;;;;;11.40;7.20;;;;;;;11.59;80.17;97122.48;107285;1257;108660;-75
2024/02/10 12:04:47;;;;;;;12.20;6.50;;;;;;;11.57;79.91;97126.27;105116;1259;95373;-76
2024/02/10 12:07:20;;;;;;;11.50;6.60;;;;;;;11.56;79.97;97119.08;104942;1263;108015;-77
2024/02/10 12:09:50;;;;;;;11.00;7.70;;;;;;;11.58;79.73;97118.00;104840;1262;96216;-76
2024/02/10 12:12:19;;;;;;;10.10;7.40;;;;;;;11.59;79.79;97120.76;105011;1259;95526;-78
2024/02/10 12:14:52;;;;;;;9.20;7.10;;;;;;;11.59;79.74;97124.32;105368;1261;108579;-76
2024/02/10 12:17:31;;;;;;;9.90;6.90;;;;;;;11.60;79.68;97125.09;106457;1262;95371;-78
2024/02/10 12:20:29;;;;;;;9.00;6.80;;;;;;;11.62;79.70;97121.48;108164;1257;107615;-79
2024/02/10 12:23:32;;;;;;;8.80;7.10;;;;;;;11.62;79.61;97120.58;105752;1271;95951;-77
2024/02/10 12:26:02;;;;;;;9.60;7.70;;;;;;;11.65;79.51;97122.41;108215;1257;93436;-74
2024/02/10 12:28:33;;;;;;;11.20;7.50;;;;;;;11.65;79.36;97125.23;108339;1259;109216;-76
2024/02/10 12:31:01;;;;;;;11.30;7.30;;;;;;;11.62;79.18;97128.17;108203;1261;94661;-72